createdAt,value
2018-11-12T00:00:18.368Z,4.95
2018-11-12T00:02:48.519Z,3.40
2018-11-12T00:05:16.653Z,3.92
2018-11-12T00:07:44.399Z,4.03
2018-11-12T00:10:12.206Z,2.67
2018-11-12T00:12:40.183Z,3.22
2018-11-12T00:15:09.041Z,2.45
2018-11-12T00:17:36.761Z,2.55
2018-11-12T00:20:05.263Z,4.75
2018-11-12T00:22:33.038Z,3.22
2018-11-12T00:25:00.813Z,3.62
2018-11-12T00:27:28.565Z,2.30
2018-11-12T00:29:56.289Z,4.17
2018-11-12T00:32:23.972Z,3.30
2018-11-12T00:34:51.897Z,4.08
2018-11-12T00:37:19.622Z,2.08
2018-11-12T00:39:47.361Z,2.42
2018-11-12T00:42:15.080Z,2.33
2018-11-12T00:44:42.833Z,1.75
2018-11-12T00:47:10.547Z,2.30
2018-11-12T00:49:38.273Z,2.30
2018-11-12T00:52:06.545Z,1.95
2018-11-12T00:54:34.280Z,2.50
2018-11-12T00:57:02.397Z,3.08
2018-11-12T00:59:30.134Z,2.40
2018-11-12T01:01:58.076Z,2.05
2018-11-12T01:04:25.776Z,2.02
2018-11-12T01:06:53.521Z,1.87
2018-11-12T01:09:21.265Z,1.77
2018-11-12T01:11:49.000Z,2.08
2018-11-12T01:14:16.704Z,2.20
2018-11-12T01:16:44.408Z,2.00
2018-11-12T01:19:12.147Z,3.50
2018-11-12T01:21:39.879Z,1.50
2018-11-12T01:24:07.655Z,1.60
2018-11-12T01:26:35.396Z,1.20
2018-11-12T01:29:03.090Z,1.87
2018-11-12T01:31:30.858Z,2.20
2018-11-12T01:33:58.655Z,2.00
2018-11-12T01:36:26.364Z,2.42
2018-11-12T01:38:54.065Z,2.20
2018-11-12T01:41:21.829Z,1.98
2018-11-12T01:43:49.538Z,1.80
2018-11-12T01:46:17.273Z,1.40
2018-11-12T01:48:45.016Z,1.45
2018-11-12T01:51:12.745Z,2.47
2018-11-12T01:53:40.490Z,1.90
2018-11-12T01:56:08.520Z,1.95
2018-11-12T01:58:36.632Z,2.02
2018-11-12T02:01:04.466Z,1.85
2018-11-12T02:03:32.271Z,3.70
2018-11-12T02:05:59.973Z,2.65
2018-11-12T02:08:27.722Z,2.65
2018-11-12T02:10:55.457Z,2.00
2018-11-12T02:13:23.181Z,2.05
2018-11-12T02:15:50.885Z,2.22
2018-11-12T02:18:18.590Z,3.20
2018-11-12T02:20:46.357Z,2.22
2018-11-12T02:23:14.090Z,2.83
2018-11-12T02:25:41.841Z,1.62
2018-11-12T02:28:09.549Z,1.85
2018-11-12T02:30:42.960Z,1.55
2018-11-12T02:33:10.685Z,1.45
2018-11-12T02:35:38.447Z,1.60
2018-11-12T02:38:06.189Z,1.62
2018-11-12T02:40:33.922Z,1.20
2018-11-12T02:43:01.688Z,1.30
2018-11-12T02:45:29.422Z,1.77
2018-11-12T02:47:57.136Z,1.10
2018-11-12T02:50:24.847Z,1.50
2018-11-12T02:52:52.618Z,1.35
2018-11-12T02:55:20.345Z,1.70
2018-11-12T02:57:48.064Z,1.65
2018-11-12T03:00:18.071Z,1.70
2018-11-12T03:02:45.848Z,1.62
2018-11-12T03:05:13.844Z,1.90
2018-11-12T03:07:41.854Z,3.95
2018-11-12T03:10:11.940Z,1.40
2018-11-12T03:12:39.794Z,1.92
2018-11-12T03:15:08.662Z,2.02
2018-11-12T03:17:36.371Z,1.70
2018-11-12T03:20:04.885Z,1.85
2018-11-12T03:22:32.593Z,2.15
2018-11-12T03:25:00.329Z,2.70
2018-11-12T03:27:28.086Z,1.82
2018-11-12T03:29:55.823Z,2.05
2018-11-12T03:32:23.532Z,1.62
2018-11-12T03:34:51.263Z,1.80
2018-11-12T03:37:18.998Z,1.90
2018-11-12T03:39:46.859Z,1.70
2018-11-12T03:42:14.455Z,2.00
2018-11-12T03:44:42.195Z,1.60
2018-11-12T03:47:09.890Z,1.40
2018-11-12T03:49:37.636Z,1.15
2018-11-12T03:52:05.548Z,1.60
2018-11-12T03:54:33.306Z,1.90
2018-11-12T03:57:01.061Z,1.72
2018-11-12T03:59:28.797Z,2.00
2018-11-12T04:01:56.544Z,1.75
2018-11-12T04:04:24.318Z,2.17
2018-11-12T04:06:52.053Z,1.40
2018-11-12T04:09:19.821Z,1.70
2018-11-12T04:11:47.568Z,1.85
2018-11-12T04:14:15.293Z,2.00
2018-11-12T04:16:43.947Z,2.10
2018-11-12T04:19:11.942Z,1.42
2018-11-12T04:21:39.687Z,1.77
2018-11-12T04:24:08.137Z,2.02
2018-11-12T04:26:35.858Z,2.27
2018-11-12T04:29:03.598Z,1.82
2018-11-12T04:31:31.331Z,1.90
2018-11-12T04:33:59.405Z,1.72
2018-11-12T04:36:27.160Z,1.90
2018-11-12T04:38:55.538Z,2.20
2018-11-12T04:41:23.241Z,2.02
2018-11-12T04:43:50.977Z,2.15
2018-11-12T04:46:18.750Z,1.82
2018-11-12T04:48:46.469Z,1.62
2018-11-12T04:51:14.197Z,2.17
2018-11-12T04:53:42.008Z,1.65
2018-11-12T04:56:09.713Z,1.90
2018-11-12T04:58:37.408Z,2.00
2018-11-12T05:01:05.596Z,1.75
2018-11-12T05:03:33.369Z,2.00
2018-11-12T05:06:01.180Z,1.62
2018-11-12T05:08:28.947Z,1.85
2018-11-12T05:10:56.654Z,1.82
2018-11-12T05:13:24.392Z,1.55
2018-11-12T05:15:52.148Z,1.70
2018-11-12T05:18:19.895Z,2.20
2018-11-12T05:20:47.633Z,2.10
2018-11-12T05:23:15.349Z,2.00
2018-11-12T05:25:43.068Z,1.75
2018-11-12T05:28:10.777Z,1.90
2018-11-12T05:30:38.500Z,1.85
2018-11-12T05:33:06.230Z,1.98
2018-11-12T05:35:33.993Z,2.20
2018-11-12T05:38:01.725Z,2.60
2018-11-12T05:40:29.983Z,2.25
2018-11-12T05:42:58.029Z,2.33
2018-11-12T05:45:26.947Z,2.30
2018-11-12T05:47:54.713Z,2.58
2018-11-12T05:50:24.702Z,1.75
2018-11-12T05:52:53.761Z,1.72
2018-11-12T05:55:22.765Z,3.10
2018-11-12T05:57:50.550Z,2.35
2018-11-12T06:00:21.363Z,2.10
2018-11-12T06:02:49.101Z,2.27
2018-11-12T06:05:16.950Z,1.60
2018-11-12T06:07:44.739Z,1.90
2018-11-12T06:10:19.309Z,2.25
2018-11-12T06:12:47.192Z,2.30
2018-11-12T06:15:15.169Z,2.00
2018-11-12T06:17:43.756Z,1.67
2018-11-12T06:20:15.614Z,1.98
2018-11-12T06:22:43.381Z,2.40
2018-11-12T06:25:12.453Z,2.10
2018-11-12T06:27:40.200Z,2.42
2018-11-12T06:30:11.110Z,1.50
2018-11-12T06:32:38.849Z,3.17
2018-11-12T06:35:07.626Z,2.02
2018-11-12T06:37:35.493Z,2.10
2018-11-12T06:40:03.749Z,1.40
2018-11-12T06:42:31.556Z,2.05
2018-11-12T06:44:59.261Z,1.70
2018-11-12T06:47:27.068Z,3.95
2018-11-12T06:49:54.788Z,4.87
2018-11-12T06:52:22.590Z,4.80
2018-11-12T06:54:50.316Z,3.45
2018-11-12T06:57:18.044Z,4.15
2018-11-12T06:59:45.845Z,3.47
2018-11-12T07:02:13.614Z,3.55
2018-11-12T07:04:41.445Z,1.77
2018-11-12T07:07:09.169Z,2.37
2018-11-12T07:09:36.946Z,3.08
2018-11-12T07:12:04.785Z,2.67
2018-11-12T07:14:32.605Z,4.50
2018-11-12T07:17:00.372Z,3.40
2018-11-12T07:19:28.169Z,2.10
2018-11-12T07:21:55.921Z,1.85
2018-11-12T07:24:23.727Z,2.22
2018-11-12T07:26:51.528Z,1.95
2018-11-12T07:29:19.333Z,1.62
2018-11-12T07:31:47.090Z,2.30
2018-11-12T07:34:15.156Z,1.90
2018-11-12T07:36:42.946Z,3.50
2018-11-12T07:39:11.149Z,2.83
2018-11-12T07:41:38.880Z,2.77
2018-11-12T07:44:06.881Z,4.40
2018-11-12T07:46:34.632Z,6.45
2018-11-12T07:49:02.414Z,6.65
2018-11-12T07:51:30.274Z,5.47
2018-11-12T07:53:57.916Z,6.00
2018-11-12T07:56:25.781Z,4.45
2018-11-12T07:58:53.645Z,4.33
2018-11-12T08:01:21.550Z,5.85
2018-11-12T08:03:49.422Z,5.15
2018-11-12T08:06:17.053Z,5.40
2018-11-12T08:08:44.759Z,5.42
2018-11-12T08:11:12.577Z,7.53
2018-11-12T08:13:40.294Z,5.40
2018-11-12T08:16:08.057Z,7.85
2018-11-12T08:18:35.875Z,8.43
2018-11-12T08:21:03.561Z,7.58
2018-11-12T08:23:31.316Z,6.03
2018-11-12T08:25:59.088Z,6.40
2018-11-12T08:28:26.810Z,5.65
2018-11-12T08:30:54.559Z,5.95
2018-11-12T08:33:22.308Z,5.80
2018-11-12T08:35:50.053Z,5.20
2018-11-12T08:38:17.780Z,6.40
2018-11-12T08:40:45.651Z,7.55
2018-11-12T08:43:13.305Z,7.43
2018-11-12T08:45:41.070Z,7.28
2018-11-12T08:48:08.829Z,8.50
2018-11-12T08:50:36.557Z,6.70
2018-11-12T08:53:04.526Z,5.50
2018-11-12T08:55:32.285Z,5.60
2018-11-12T08:58:01.446Z,5.73
2018-11-12T09:00:29.352Z,4.60
2018-11-12T09:02:57.090Z,6.10
2018-11-12T09:05:26.120Z,7.40
2018-11-12T09:07:56.301Z,6.90
2018-11-12T09:10:25.592Z,4.23
2018-11-12T09:12:53.300Z,6.10
2018-11-12T09:15:21.029Z,9.77
2018-11-12T09:17:49.288Z,4.57
2018-11-12T09:20:18.641Z,4.57
2018-11-12T09:22:46.360Z,4.07
2018-11-12T09:25:15.483Z,5.60
2018-11-12T09:27:43.400Z,6.53
2018-11-12T09:30:22.815Z,5.47
2018-11-12T09:32:50.660Z,5.93
2018-11-12T09:35:20.573Z,5.97
2018-11-12T09:37:49.324Z,4.90
2018-11-12T09:40:19.734Z,7.07
2018-11-12T09:42:47.577Z,7.50
2018-11-12T09:45:15.333Z,7.37
2018-11-12T09:47:43.628Z,6.50
2018-11-12T09:50:13.324Z,6.27
2018-11-12T09:52:42.483Z,4.80
2018-11-12T09:55:11.084Z,3.47
2018-11-12T09:57:39.753Z,3.70
2018-11-12T10:00:09.906Z,5.73
2018-11-12T10:02:38.384Z,4.80
2018-11-12T10:05:07.150Z,5.30
2018-11-12T10:07:34.566Z,3.07
2018-11-12T10:10:03.814Z,3.00
2018-11-12T10:12:32.021Z,2.80
2018-11-12T10:14:59.412Z,2.57
2018-11-12T10:17:40.383Z,2.83
2018-11-12T10:19:52.597Z,4.60
2018-11-12T10:22:20.284Z,3.30
2018-11-12T10:24:47.993Z,2.97
2018-11-12T10:27:15.764Z,4.20
2018-11-12T10:29:43.432Z,4.90
2018-11-12T10:32:11.174Z,3.27
2018-11-12T10:34:38.889Z,3.30
2018-11-12T10:37:06.662Z,2.60
2018-11-12T10:39:34.386Z,2.87
2018-11-12T10:42:02.089Z,2.50
2018-11-12T10:44:29.833Z,2.10
2018-11-12T10:46:57.577Z,1.83
2018-11-12T10:49:25.366Z,1.40
2018-11-12T10:51:53.130Z,1.20
2018-11-12T10:54:20.925Z,1.07
2018-11-12T10:56:48.545Z,1.50
2018-11-12T10:59:16.266Z,1.50
2018-11-12T11:01:49.707Z,0.90
2018-11-12T11:04:20.685Z,1.40
2018-11-12T11:06:48.413Z,1.50
2018-11-12T11:09:16.129Z,1.20
2018-11-12T11:11:44.070Z,0.90
2018-11-12T11:14:11.830Z,1.20
2018-11-12T11:16:39.590Z,0.97
2018-11-12T11:19:07.691Z,1.47
2018-11-12T11:21:35.420Z,1.30
2018-11-12T11:24:03.183Z,1.20
2018-11-12T11:26:30.931Z,1.37
2018-11-12T11:28:58.657Z,1.30
2018-11-12T11:31:26.364Z,0.87
2018-11-12T11:33:54.097Z,1.17
2018-11-12T11:36:21.928Z,0.90
2018-11-12T11:38:49.642Z,1.07
2018-11-12T11:41:17.435Z,1.00
2018-11-12T11:43:45.195Z,1.27
2018-11-12T11:46:12.932Z,0.80
2018-11-12T11:48:40.683Z,1.03
2018-11-12T11:51:08.377Z,0.70
2018-11-12T11:53:36.105Z,0.90
2018-11-12T11:56:04.064Z,0.70
2018-11-12T11:58:31.765Z,1.33
2018-11-12T12:00:59.555Z,1.10
2018-11-12T12:03:28.992Z,0.83
2018-11-12T12:05:56.732Z,0.93
2018-11-12T12:08:24.536Z,0.87
2018-11-12T12:10:52.222Z,1.00
2018-11-12T12:13:19.993Z,1.13
2018-11-12T12:15:47.646Z,0.80
2018-11-12T12:18:15.402Z,0.90
2018-11-12T12:20:43.178Z,1.20
2018-11-12T12:23:10.880Z,0.80
2018-11-12T12:25:38.651Z,1.10
2018-11-12T12:28:06.318Z,0.93
2018-11-12T12:30:34.001Z,0.97
2018-11-12T12:33:01.726Z,1.17
2018-11-12T12:35:29.445Z,1.00
2018-11-12T12:37:57.138Z,0.70
2018-11-12T12:40:25.321Z,1.00
2018-11-12T12:42:53.045Z,0.93
2018-11-12T12:45:22.264Z,1.57
2018-11-12T12:47:50.261Z,1.00
2018-11-12T12:50:18.557Z,1.20
2018-11-12T12:52:46.249Z,1.20
2018-11-12T12:55:14.947Z,1.00
2018-11-12T12:57:43.452Z,1.00
2018-11-12T13:00:19.612Z,1.00
2018-11-12T13:02:47.341Z,1.00
2018-11-12T13:05:15.097Z,1.20
2018-11-12T13:07:42.804Z,1.03
2018-11-12T13:10:12.872Z,1.10
2018-11-12T13:12:40.689Z,1.10
2018-11-12T13:15:10.270Z,1.23
2018-11-12T13:17:37.925Z,1.10
2018-11-12T13:20:07.111Z,1.33
2018-11-12T13:22:34.812Z,2.57
2018-11-12T13:25:02.567Z,3.57
2018-11-12T13:27:30.256Z,6.23
2018-11-12T13:29:58.173Z,5.80
2018-11-12T13:32:26.107Z,4.80
2018-11-12T13:34:53.825Z,6.10
2018-11-12T13:37:21.512Z,6.60
2018-11-12T13:39:49.258Z,5.80
2018-11-12T13:42:16.949Z,6.70
2018-11-12T13:44:44.644Z,6.57
2018-11-12T13:47:12.324Z,7.43
2018-11-12T13:49:40.030Z,7.73
2018-11-12T13:52:07.725Z,8.97
2018-11-12T13:54:35.442Z,8.07
2018-11-12T13:57:03.177Z,9.30
2018-11-12T13:59:31.005Z,9.00
2018-11-12T14:01:58.761Z,9.80
2018-11-12T14:04:26.467Z,10.57
2018-11-12T14:06:54.186Z,11.47
2018-11-12T14:09:21.960Z,10.23
2018-11-12T14:11:49.671Z,10.95
2018-11-12T14:14:17.398Z,10.70
2018-11-12T14:16:45.105Z,10.70
2018-11-12T14:19:12.841Z,11.93
2018-11-12T14:21:40.683Z,12.43
2018-11-12T14:24:08.309Z,12.50
2018-11-12T14:26:36.009Z,11.37
2018-11-12T14:29:03.819Z,12.70
2018-11-12T14:31:31.541Z,12.30
2018-11-12T14:33:59.269Z,12.20
2018-11-12T14:36:27.086Z,12.33
2018-11-12T14:38:54.847Z,11.83
2018-11-12T14:41:22.554Z,12.50
2018-11-12T14:43:50.341Z,12.33
2018-11-12T14:46:18.085Z,11.97
2018-11-12T14:48:45.961Z,11.50
2018-11-12T14:51:13.717Z,12.20
2018-11-12T14:53:41.386Z,11.33
2018-11-12T14:56:09.123Z,11.17
2018-11-12T14:58:36.825Z,12.23
2018-11-12T15:01:04.725Z,11.07
2018-11-12T15:03:32.493Z,12.23
2018-11-12T15:06:00.212Z,13.22
2018-11-12T15:08:27.950Z,10.05
2018-11-12T15:10:55.683Z,9.30
2018-11-12T15:13:23.417Z,9.40
2018-11-12T15:15:51.171Z,10.85
2018-11-12T15:18:18.903Z,9.53
2018-11-12T15:20:46.681Z,9.88
2018-11-12T15:23:14.409Z,9.57
2018-11-12T15:25:42.150Z,8.73
2018-11-12T15:28:10.129Z,10.10
2018-11-12T15:30:37.906Z,10.20
2018-11-12T15:33:05.706Z,9.38
2018-11-12T15:35:33.486Z,11.10
2018-11-12T15:38:01.331Z,10.10
2018-11-12T15:40:29.077Z,9.40
2018-11-12T15:42:56.913Z,8.48
2018-11-12T15:45:25.209Z,9.25
2018-11-12T15:47:52.922Z,8.80
2018-11-12T15:50:28.525Z,7.90
2018-11-12T15:52:56.270Z,8.90
2018-11-12T15:55:24.050Z,9.10
2018-11-12T15:57:51.989Z,8.65
2018-11-12T16:00:19.557Z,9.00
2018-11-12T16:02:47.322Z,8.68
2018-11-12T16:05:15.067Z,7.85
2018-11-12T16:07:42.965Z,7.85
2018-11-12T16:10:15.942Z,7.08
2018-11-12T16:12:43.774Z,5.80
2018-11-12T16:15:12.626Z,5.90
2018-11-12T16:17:40.769Z,6.28
2018-11-12T16:20:15.437Z,5.20
2018-11-12T16:22:44.094Z,6.67
2018-11-12T16:25:11.829Z,6.70
2018-11-12T16:27:39.831Z,5.47
2018-11-12T16:30:08.680Z,5.20
2018-11-12T16:32:36.625Z,5.53
2018-11-12T16:35:05.290Z,5.63
2018-11-12T16:37:33.005Z,5.05
2018-11-12T16:40:00.746Z,5.67
2018-11-12T16:42:28.460Z,5.87
2018-11-12T16:44:56.219Z,6.70
2018-11-12T16:47:23.976Z,6.00
2018-11-12T16:49:51.705Z,6.30
2018-11-12T16:52:19.429Z,6.05
2018-11-12T16:54:47.204Z,6.25
2018-11-12T16:57:15.064Z,6.05
2018-11-12T16:59:42.856Z,6.07
2018-11-12T17:02:10.645Z,5.95
2018-11-12T17:04:38.421Z,7.20
2018-11-12T17:07:06.161Z,6.63
2018-11-12T17:09:33.872Z,6.60
2018-11-12T17:12:01.600Z,6.63
2018-11-12T17:14:29.355Z,5.85
2018-11-12T17:16:57.115Z,6.03
2018-11-12T17:19:24.872Z,7.00
2018-11-12T17:21:52.597Z,7.42
2018-11-12T17:24:20.354Z,6.90
2018-11-12T17:26:48.111Z,5.22
2018-11-12T17:29:15.868Z,6.13
2018-11-12T17:31:43.621Z,6.00
2018-11-12T17:34:11.350Z,6.23
2018-11-12T17:36:39.170Z,6.50
2018-11-12T17:39:07.451Z,5.75
2018-11-12T17:41:35.191Z,6.08
2018-11-12T17:44:03.005Z,6.93
2018-11-12T17:46:30.757Z,6.03
2018-11-12T17:48:58.484Z,6.50
2018-11-12T17:51:26.212Z,5.78
2018-11-12T17:53:53.933Z,7.27
2018-11-12T17:56:21.662Z,5.55
2018-11-12T17:58:49.380Z,7.40
2018-11-12T18:01:17.142Z,6.42
2018-11-12T18:03:44.932Z,6.95
2018-11-12T18:06:12.766Z,7.85
2018-11-12T18:08:40.502Z,7.57
2018-11-12T18:11:08.241Z,7.13
2018-11-12T18:13:36.015Z,7.45
2018-11-12T18:16:03.986Z,8.83
2018-11-12T18:18:31.728Z,12.07
2018-11-12T18:20:59.489Z,8.00
2018-11-12T18:23:27.237Z,7.93
2018-11-12T18:25:54.960Z,7.80
2018-11-12T18:28:22.709Z,8.30
2018-11-12T18:30:50.713Z,9.98
2018-11-12T18:33:18.165Z,8.65
2018-11-12T18:35:45.865Z,8.80
2018-11-12T18:38:13.713Z,9.75
2018-11-12T18:40:41.380Z,8.53
2018-11-12T18:43:09.105Z,8.57
2018-11-12T18:45:36.895Z,12.82
2018-11-12T18:48:04.724Z,8.80
2018-11-12T18:50:32.453Z,9.47
2018-11-12T18:53:00.196Z,9.07
2018-11-12T18:55:27.976Z,8.88
2018-11-12T18:57:56.246Z,10.00
2018-11-12T19:00:25.026Z,9.80
2018-11-12T19:02:52.945Z,9.13
2018-11-12T19:05:22.186Z,9.65
2018-11-12T19:07:51.089Z,9.57
2018-11-12T19:10:21.268Z,8.63
2018-11-12T19:12:49.491Z,8.48
2018-11-12T19:15:18.666Z,8.50
2018-11-12T19:17:48.450Z,8.50
2018-11-12T19:20:16.659Z,9.45
2018-11-12T19:22:44.422Z,8.15
2018-11-12T19:25:12.844Z,9.80
2018-11-12T19:27:40.989Z,9.10
2018-11-12T19:30:12.248Z,8.55
2018-11-12T19:32:40.018Z,9.78
2018-11-12T19:35:09.383Z,9.60
2018-11-12T19:37:37.231Z,9.83
2018-11-12T19:40:06.504Z,10.82
2018-11-12T19:42:34.226Z,12.20
2018-11-12T19:45:01.960Z,10.40
2018-11-12T19:47:29.701Z,10.93
2018-11-12T19:49:57.404Z,12.70
2018-11-12T19:52:25.153Z,10.93
2018-11-12T19:54:52.882Z,10.68
2018-11-12T19:57:20.605Z,10.33
2018-11-12T19:59:48.336Z,10.60
2018-11-12T20:02:16.084Z,12.03
2018-11-12T20:04:43.817Z,13.00
2018-11-12T20:07:11.560Z,13.33
2018-11-12T20:09:39.334Z,13.25
2018-11-12T20:12:07.089Z,13.00
2018-11-12T20:14:34.798Z,12.60
2018-11-12T20:17:02.956Z,12.67
2018-11-12T20:19:30.661Z,12.43
2018-11-12T20:21:58.405Z,15.23
2018-11-12T20:24:26.137Z,15.63
2018-11-12T20:26:53.965Z,14.73
2018-11-12T20:29:21.685Z,15.33
2018-11-12T20:31:49.506Z,16.23
2018-11-12T20:34:17.254Z,14.73
2018-11-12T20:36:45.026Z,13.80
2018-11-12T20:39:12.718Z,16.67
2018-11-12T20:41:40.530Z,15.55
2018-11-12T20:44:08.272Z,14.50
2018-11-12T20:46:36.001Z,16.02
2018-11-12T20:49:03.724Z,16.70
2018-11-12T20:51:31.456Z,16.97
2018-11-12T20:53:59.178Z,15.93
2018-11-12T20:56:26.885Z,29.00
2018-11-12T20:58:54.594Z,21.33
2018-11-12T21:01:22.361Z,18.92
2018-11-12T21:03:50.093Z,18.07
2018-11-12T21:06:17.797Z,18.17
2018-11-12T21:08:45.593Z,18.10
2018-11-12T21:11:13.352Z,16.77
2018-11-12T21:13:41.079Z,17.10
2018-11-12T21:16:08.812Z,17.53
2018-11-12T21:18:36.530Z,16.90
2018-11-12T21:21:04.518Z,18.45
2018-11-12T21:23:32.255Z,17.03
2018-11-12T21:25:59.988Z,18.60
2018-11-12T21:28:27.716Z,19.20
2018-11-12T21:30:55.434Z,18.10
2018-11-12T21:33:23.217Z,19.55
2018-11-12T21:35:50.924Z,16.57
2018-11-12T21:38:18.652Z,18.17
2018-11-12T21:40:47.208Z,21.50
2018-11-12T21:43:15.004Z,20.57
2018-11-12T21:45:42.661Z,22.10
2018-11-12T21:48:10.406Z,20.17
2018-11-12T21:50:38.177Z,20.02
2018-11-12T21:53:05.994Z,18.02
2018-11-12T21:55:33.712Z,19.17
2018-11-12T21:58:01.472Z,17.82
2018-11-12T22:00:29.208Z,18.60
2018-11-12T22:02:59.384Z,16.48
2018-11-12T22:05:27.846Z,18.40
2018-11-12T22:07:55.581Z,18.35
2018-11-12T22:10:23.288Z,17.98
2018-11-12T22:12:51.777Z,18.40
2018-11-12T22:15:19.510Z,19.10
2018-11-12T22:17:47.275Z,19.17
2018-11-12T22:20:16.284Z,20.70
2018-11-12T22:22:44.205Z,21.27
2018-11-12T22:25:13.245Z,19.35
2018-11-12T22:27:41.531Z,19.00
2018-11-12T22:30:11.416Z,17.07
2018-11-12T22:32:39.135Z,18.17
2018-11-12T22:35:07.368Z,17.87
2018-11-12T22:37:35.184Z,18.87
2018-11-12T22:40:02.974Z,18.37
2018-11-12T22:42:30.712Z,18.45
2018-11-12T22:44:58.422Z,17.25
2018-11-12T22:47:26.317Z,16.73
2018-11-12T22:49:54.038Z,16.67
2018-11-12T22:52:21.748Z,14.67
2018-11-12T22:54:49.464Z,15.33
2018-11-12T22:57:17.189Z,15.50
2018-11-12T22:59:44.956Z,13.38
2018-11-12T23:02:12.660Z,15.18
2018-11-12T23:04:40.377Z,13.18
2018-11-12T23:07:08.128Z,11.93
2018-11-12T23:09:35.894Z,8.43
2018-11-12T23:12:03.741Z,8.05
2018-11-12T23:14:31.459Z,7.90
2018-11-12T23:16:59.199Z,7.78
2018-11-12T23:19:26.913Z,17.12
2018-11-12T23:21:54.622Z,7.60
2018-11-12T23:24:22.356Z,6.95
2018-11-12T23:26:50.094Z,7.85
2018-11-12T23:29:17.808Z,8.28
2018-11-12T23:31:45.521Z,7.58
2018-11-12T23:34:13.261Z,8.50
2018-11-12T23:36:40.960Z,8.38
2018-11-12T23:39:08.733Z,8.68
2018-11-12T23:41:36.791Z,7.95
2018-11-12T23:44:04.736Z,8.08
2018-11-12T23:46:32.447Z,8.35
2018-11-12T23:49:00.190Z,8.65
2018-11-12T23:51:27.923Z,8.13
2018-11-12T23:53:55.644Z,8.93
2018-11-12T23:56:23.353Z,7.62
2018-11-12T23:58:51.076Z,7.42
